CA-0013 weather

CLOSED RCAF Pennfield Ridge
Pennfield, New Brunswick, Canada

Public forecast

Using degrees Celsius for public forecast. Weather courtesy of forecast.io.

Closest aviation weather report (METAR) to RCAF Pennfield Ridge

Closest report is Saint John Airport, 35.8 nm (66.3 km) ENE. Retrieved 2020/07/14 10:20 UTC (2 minutes ago):

CYSJ 141020Z 02009KT 5SM BR OVC004 18/17 A2990 RMK ST8 SLP128 DENSITY ALT 800FT

Closest aviation forecast (TAF) to RCAF Pennfield Ridge

Closest forecast is Saint John Airport, 35.8 nm (66.3 km) ENE. Retrieved 2020/07/14 06:39 UTC (4 hours ago):

TAF CYSJ 140538Z 1406/1418 20005KT P6SM OVC130 PROB30 1406/1408 2SM BR OVC006 FM140800 VRB03KT P6SM -SHRA OVC080 TEMPO 1408/1412 5SM -SHRA BR OVC010 PROB30 1408/1412 VRB15G25KT 3/4SM +TSRA BR BKN005 OVC015CB FM141200 08008KT P6SM -RA OVC010 BECMG 1414/1416 03012KT RMK NXT FCST BY 141200Z